首页
METAR-TAF:

METAR-TAF

机场 :

门格洛尔国际机场

门格洛尔, 印度

纬度: 12-55N, 经度: 074-53E, 海拔: 102米

当前天气观测

该预报发布于21分钟前的22:00 UTC
风速3节,风向东南
温度 24°C
湿度 100%
气压 1005 hPa
能見度: 3000
少量云层高于100英尺
散云层高于1200英尺
阴天层高于8000英尺
小雨, 轻雾

METAR: VOML 222200Z 14003KT 3000 -RA BR FEW001 SCT012 OVC080 24/24 Q1005 TEMPO 1500 RA BR

时间: 03:51 (22:21 UTC)

预报

该预报发布于2小时和21分钟前的20:00 UTC
预报有效从22日的 21点(UTC)到 23日的 06点(UTC)
风速5节,风向
能見度: 6000
散云层高于1200英尺
散云层高于8000英尺
短暂存在
从 22日的 21点(UTC)到 23日的 03点(UTC)
能見度: 3000
散云层高于300英尺
散云层高于1200英尺
少量云层高于2500英尺, 积雨云.
阴天层高于8000英尺
雨, 毛毛雨, 轻雾,

TAF: VOML 222000Z 2221/2306 09005KT 6000 SCT012 SCT080 TEMPO 2221/2303 3000 RA DZ BR SCT003 SCT012 FEW025CB OVC080

超过4000个机场的气象观测和天气预报(METAR&TAF报告)。

可查询的气象台以黄色和红色小点在地图上表示。

将鼠标移到小点上方,可查看气象台名称。

然后点击查看天气观测和预报。

如需切换地图:点击带黑十字的绿色按钮放大地图;点击带横线的绿色按钮缩小地图;或者点击绿色箭头查看邻近地区的地图。


METAR-TAF: